Terminal Aerodrome Forecast
Issued by NWS

Home | Current Version | Previous Version | Text Only | Print | Product List | Glossary On
Versions: 1 2 3 4 5 6 7 8 9 10 11 12 13 14
000
FTUS45 KABQ 261122
TAFTCC
TAF
KTCC 261122Z 2612/2712 22006KT P6SM SKC
     FM261500 23018G28KT P6SM SKC
     FM262000 23026G36KT P6SM SKC
     FM270100 23018KT P6SM SKC
     FM270700 26009KT P6SM SKC=

USA.gov is the U.S. government's official web portal to all federal, state and local government web resources and services.